2 км

Карта отелей и гостиниц, располагающихся рядом с аэропортом 2 км :

2 км Томская область 60° 44' 32.1" N, 77° 32' 0.8412" E
2 км Томская область 60° 44' 32.1" N, 77° 32' 0.8412" E
Код аэродрома ИКАО
HB6B
Код аэродрома RU
ХБ6Б
Координаты
N60.74225° E077.53357°
Превышение над уровнем моря
44
Основная полоса
Курс магнитный
Длина основной ВПП
30
Ширина основной ВПП
30
Покрытие основной ВПП
Твёрдое
Освещение ВПП
Нет
Тип: 
Вертодром
Класс аэродрома: 
Принадлежность: 
ГА
Статус: 
Действующий
Сайт: 
E-mail аэродрома: 
Страна: 
Россия
Регион: 
Томская область
Город: 
Дополнительная информация: 
Маркирована. Оборудована ветроуказателем.


Найти трансфер

С помощью этой формы Вы можете найти трансфер из аэропорта 2 км в город, аэропорт или вокзал:

Погода в аэропортах:

Авиационная погода в Куопио

Регион: 
Погода METAR: 
EFKU 291020Z AUTO 21003KT 050V140 9999 VCSH FEW033 //////CB 15/10 Q1004
Время наблюдения
2022-05-29T10:20:00Z
Температура C
15.0
Точка росы
10.0
Направление ветра
210
Скорость ветра (узлы)
3
Метео видимость
6.21
Облачность
FEW
Нижняя граница облачности (футы)
3300
Явления погоды
VCSH
Условия полета
VFR
FEW – незначительная облачность;

Авиационная погода в Бухте Провидения

Погода METAR: 
UHMD 270400Z 18005MPS 6000 BCFG SCT006 02/00 Q1016 RMK QBB200 MT OBSC QFE761/1015
Время наблюдения
2022-05-27T04:00:00Z
Температура C
2.0
Точка росы
0.0
Направление ветра
180
Скорость ветра (узлы)
10
Метео видимость
3.73
Облачность
SCT
Нижняя граница облачности (футы)
600
Явления погоды
BCFG
Условия полета
MVFR
Аэропорт подробнее: 
SCT – разбросанная отдельная облачность;
FG – туман (небо не видно, температура воздуха выше нуля или ноль);

Авиационная погода в Пулково

Регион: 
Погода METAR: 
ULLI 291030Z 30004MPS 9999 -SHRA SCT021CB BKN040 13/10 Q1006 R28L/290050 R28R/190055 NOSIG
Время наблюдения
2022-05-29T10:30:00Z
Температура C
13.0
Точка росы
10.0
Направление ветра
300
Скорость ветра (узлы)
8
Метео видимость
6.21
Облачность
SCT
BKN
Нижняя граница облачности (футы)
2100
4000
Явления погоды
-SHRA
Условия полета
VFR
Аэропорт подробнее: 
SCT – разбросанная отдельная облачность; BKN – значительная (рассеянная, разорванная) облачность;
-SHRA - слабый ливневой дождь;

Авиационная погода в Игнатьево

Регион: 
Погода METAR: 
UHBB 291030Z 09002MPS 9000 -SHRA BKN026CB 12/12 Q0996 R36/290250 NOSIG RMK QFE730/0973
Время наблюдения
2022-05-29T10:30:00Z
Температура C
12.0
Точка росы
12.0
Направление ветра
90
Скорость ветра (узлы)
4
Метео видимость
5.59
Облачность
BKN
Нижняя граница облачности (футы)
2600
Явления погоды
-SHRA
Условия полета
MVFR
Аэропорт подробнее: 
BKN – значительная (рассеянная, разорванная) облачность;
-SHRA - слабый ливневой дождь;